Zazoe — PH6558 — position and weather

sailwx.info

Track history (hours):
 
Tides and Currents Weather Stations Pressure Air Temp Water Temp Dewpoint Dewpoint Depression Visibility Wind Speed Wind Dir Waves Ship Positions

Zazoe

Last reported at 2017-Aug-16 13:12 UTC. Time now 2017-Aug-22 07:13 UTC.
Position N 51°28' E 003°36'.

Length 15 m.

Type: Pleasure craft. MMSI: 244050035.

Date/timePositionNaut miles runAvg speedWind from/ knotsBaromVisibWave heightAir tempDewpointWater temp
2017-Aug-16 13:12N 51°28' E 003°36'1 2.5
2017-Aug-16 12:42N 51°27' E 003°35'2 2.1
2017-Aug-16 11:36N 51°25' E 003°33'0 3.9
2017-Aug-16 11:28N 51°25' E 003°32'2 3.9
2017-Aug-16 10:59N 51°25' E 003°29'6 4.4
2017-Aug-16 09:36N 51°23' E 003°19'0 5.4
2017-Aug-16 09:31N 51°23' E 003°19'3 5.9
2017-Aug-16 09:00N 51°22' E 003°14'3 6.2
2017-Aug-16 08:30N 51°21' E 003°09'6 7.0
2017-Aug-16 07:43N 51°18' E 003°02'2 6.9
2017-Aug-16 07:29N 51°17' E 003°00'3 7.0
2017-Aug-16 07:00N 51°15' E 002°56'1 2.2
2017-Aug-16 06:30N 51°14' E 002°55'0 0.0
2017-Aug-14 16:38N 51°14' E 002°55'0 0.0
2017-Aug-14 16:29N 51°14' E 002°55'0 0.4
2017-Aug-14 16:00N 51°14' E 002°55'1 1.5
2017-Aug-14 15:30N 51°14' E 002°55'3 5.3
2017-Aug-14 15:00N 51°14' E 002°51'2 3.6
2017-Aug-14 14:30N 51°12' E 002°50'2 4.8
2017-Aug-14 14:00N 51°12' E 002°46'3 5.1
2017-Aug-14 13:30N 51°11' E 002°42'3 5.3
2017-Aug-14 13:00N 51°10' E 002°39'2 5.0
2017-Aug-14 12:30N 51°09' E 002°35'2 4.5
2017-Aug-14 12:00N 51°07' E 002°32'2 4.6
2017-Aug-14 11:30N 51°06' E 002°30'3 4.4
2017-Aug-14 10:56N 51°05' E 002°26'3 0.7
2017-Aug-14 07:02N 51°03' E 002°22'0 0.0
2017-Aug-14 06:59N 51°03' E 002°22'0 0.0
2017-Aug-14 02:53N 51°03' E 002°22'4 0.4
2017-Aug-13 17:21N 51°04' E 002°17'  
2017-Aug-11 12:37N 49°53' W 001°23'1 6.0
2017-Aug-11 12:30N 49°53' W 001°24'3 6.5
2017-Aug-11 12:00N 49°51' W 001°28'3 6.9
2017-Aug-11 11:30N 49°50' W 001°33'4 7.2
2017-Aug-11 11:00N 49°49' W 001°38'4 7.9
2017-Aug-11 10:30N 49°48' W 001°44'  
2017-Aug-08 12:25N 48°35' W 004°46'4 8.9
2017-Aug-08 11:59N 48°32' W 004°49'3 6.4
2017-Aug-08 11:28N 48°28' W 004°49'3 5.7
2017-Aug-08 10:58N 48°25' W 004°50'6 5.1
2017-Aug-08 09:53N 48°20' W 004°48'2 3.8
2017-Aug-08 09:20N 48°18' W 004°48'2 6.6
2017-Aug-08 09:00N 48°18' W 004°44'4 7.3
2017-Aug-08 08:30N 48°19' W 004°39'2 4.5
2017-Aug-08 08:00N 48°18' W 004°36'2 0.0
2017-Aug-06 16:16N 48°17' W 004°35'0 0.0
2017-Aug-06 15:58N 48°17' W 004°35'0 0.0
2017-Aug-06 15:29N 48°17' W 004°35'1 1.3
2017-Aug-06 15:00N 48°17' W 004°36'1 3.0
2017-Aug-06 14:30N 48°17' W 004°38'2 3.8
2017-Aug-06 14:00N 48°15' W 004°38'2 4.6
2017-Aug-06 13:30N 48°13' W 004°37'  
Track history (hours):
 
Tides and Currents Weather Stations Pressure Air Temp Water Temp Dewpoint Dewpoint Depression Visibility Wind Speed Wind Dir Waves Ship Positions

Zazoe

Last reported at 2017-Aug-16 13:12 UTC. Time now 2017-Aug-22 07:13 UTC.
Position N 51°28' E 003°36'.

Length 15 m.

Type: Pleasure craft. MMSI: 244050035.

Date/timePositionNaut miles runAvg speedWind from/ knotsBaromVisibWave heightAir tempDewpointWater temp
2017-Aug-16 13:12N 51°28' E 003°36'1 2.5
2017-Aug-16 12:42N 51°27' E 003°35'2 2.1
2017-Aug-16 11:36N 51°25' E 003°33'0 3.9
2017-Aug-16 11:28N 51°25' E 003°32'2 3.9
2017-Aug-16 10:59N 51°25' E 003°29'6 4.4
2017-Aug-16 09:36N 51°23' E 003°19'0 5.4
2017-Aug-16 09:31N 51°23' E 003°19'3 5.9
2017-Aug-16 09:00N 51°22' E 003°14'3 6.2
2017-Aug-16 08:30N 51°21' E 003°09'6 7.0
2017-Aug-16 07:43N 51°18' E 003°02'2 6.9
2017-Aug-16 07:29N 51°17' E 003°00'3 7.0
2017-Aug-16 07:00N 51°15' E 002°56'1 2.2
2017-Aug-16 06:30N 51°14' E 002°55'0 0.0
2017-Aug-14 16:38N 51°14' E 002°55'0 0.0
2017-Aug-14 16:29N 51°14' E 002°55'0 0.4
2017-Aug-14 16:00N 51°14' E 002°55'1 1.5
2017-Aug-14 15:30N 51°14' E 002°55'3 5.3
2017-Aug-14 15:00N 51°14' E 002°51'2 3.6
2017-Aug-14 14:30N 51°12' E 002°50'2 4.8
2017-Aug-14 14:00N 51°12' E 002°46'3 5.1
2017-Aug-14 13:30N 51°11' E 002°42'3 5.3
2017-Aug-14 13:00N 51°10' E 002°39'2 5.0
2017-Aug-14 12:30N 51°09' E 002°35'2 4.5
2017-Aug-14 12:00N 51°07' E 002°32'2 4.6
2017-Aug-14 11:30N 51°06' E 002°30'3 4.4
2017-Aug-14 10:56N 51°05' E 002°26'3 0.7
2017-Aug-14 07:02N 51°03' E 002°22'0 0.0
2017-Aug-14 06:59N 51°03' E 002°22'0 0.0
2017-Aug-14 02:53N 51°03' E 002°22'4 0.4
2017-Aug-13 17:21N 51°04' E 002°17'  
2017-Aug-11 12:37N 49°53' W 001°23'1 6.0
2017-Aug-11 12:30N 49°53' W 001°24'3 6.5
2017-Aug-11 12:00N 49°51' W 001°28'3 6.9
2017-Aug-11 11:30N 49°50' W 001°33'4 7.2
2017-Aug-11 11:00N 49°49' W 001°38'4 7.9
2017-Aug-11 10:30N 49°48' W 001°44'  
2017-Aug-08 12:25N 48°35' W 004°46'4 8.9
2017-Aug-08 11:59N 48°32' W 004°49'3 6.4
2017-Aug-08 11:28N 48°28' W 004°49'3 5.7
2017-Aug-08 10:58N 48°25' W 004°50'6 5.1
2017-Aug-08 09:53N 48°20' W 004°48'2 3.8
2017-Aug-08 09:20N 48°18' W 004°48'2 6.6
2017-Aug-08 09:00N 48°18' W 004°44'4 7.3
2017-Aug-08 08:30N 48°19' W 004°39'2 4.5
2017-Aug-08 08:00N 48°18' W 004°36'2 0.0
2017-Aug-06 16:16N 48°17' W 004°35'0 0.0
2017-Aug-06 15:58N 48°17' W 004°35'0 0.0
2017-Aug-06 15:29N 48°17' W 004°35'1 1.3
2017-Aug-06 15:00N 48°17' W 004°36'1 3.0
2017-Aug-06 14:30N 48°17' W 004°38'2 3.8
2017-Aug-06 14:00N 48°15' W 004°38'2 4.6
2017-Aug-06 13:30N 48°13' W 004°37'  

Dump ship's entire track history